Terminal Aerodrome Forecast
Issued by NWS

Home | Current Version | Previous Version | Text Only | Print | Product List | Glossary On
Versions: 1 2 3 4 5 6 7 8 9 10 11 12 13 14 15 16 17 18 19 20
000
FTAK31 PAFA 272340
TAFAOM
TAF
PAOM 272340Z 2800/2824 15013KT P6SM OVC006
     FM280300 16018G28KT 5SM -RA BR OVC006
     FM280900 18024G32KT 1SM -RA BR OVC006
     FM281200 23018G25KT 3SM -SHRA BR SCT008 BKN015 OVC030
     FM281800 24015G24KT P6SM VCSH BKN020 BKN040=

USA.gov is the U.S. government's official web portal to all federal, state and local government web resources and services.